Time;durP1;ratioP1;P1;durP2;ratioP2;P2;SDS_P1;SDS_P2;PMS_P1;PMS_P2;Temp;Humidity;BMP_temperature;BMP_pressure;BME280_temperature;BME280_humidity;BME280_pressure;Samples;Min_cycle;Max_cycle;Signal;HPM_P1;HPM_P2
2022/07/09 00:00:31;;;;;;;11.67;7.10;;;;;;;18.08;65.40;102220.19;5101373;28;20175;-63
2022/07/09 00:02:57;;;;;;;9.63;6.40;;;;;;;17.70;66.58;102216.53;5101082;28;20196;-63
2022/07/09 00:05:22;;;;;;;13.80;7.00;;;;;;;17.67;67.05;102220.03;5101637;28;20164;-63
2022/07/09 00:07:47;;;;;;;10.53;6.47;;;;;;;17.67;67.06;102216.50;5100958;28;20174;-64
2022/07/09 00:10:13;;;;;;;11.00;7.20;;;;;;;17.84;66.82;102209.50;5101258;28;20172;-63
2022/07/09 00:12:39;;;;;;;13.60;7.33;;;;;;;17.81;66.65;102209.50;5101449;28;20406;-64
2022/07/09 00:15:05;;;;;;;14.77;6.93;;;;;;;17.81;66.72;102209.50;5099985;28;20176;-63
2022/07/09 00:17:31;;;;;;;9.10;7.30;;;;;;;17.73;66.73;102205.97;5100861;28;20268;-64
2022/07/09 00:19:56;;;;;;;11.67;6.47;;;;;;;17.81;66.97;102206.88;5101368;28;20402;-64
2022/07/09 00:22:22;;;;;;;16.23;6.83;;;;;;;17.94;66.37;102201.66;5101080;28;20164;-65
2022/07/09 00:24:47;;;;;;;9.20;6.33;;;;;;;17.92;66.42;102196.38;5101094;28;20549;-64
2022/07/09 00:27:12;;;;;;;13.07;6.90;;;;;;;17.79;66.77;102199.81;5101032;28;20164;-64
2022/07/09 00:29:38;;;;;;;14.27;6.67;;;;;;;17.64;67.37;102198.94;5100922;28;20639;-64
2022/07/09 00:32:03;;;;;;;13.07;6.70;;;;;;;17.54;68.42;102194.47;5100589;28;20241;-63
2022/07/09 00:34:29;;;;;;;12.50;6.77;;;;;;;17.58;68.09;102193.63;5100775;28;20168;-63
2022/07/09 00:36:54;;;;;;;11.30;6.73;;;;;;;17.54;67.73;102180.44;5100416;28;20199;-64
2022/07/09 00:39:20;;;;;;;11.93;7.40;;;;;;;17.88;67.16;102185.81;5100482;28;20172;-63
2022/07/09 00:41:45;;;;;;;15.07;7.70;;;;;;;17.57;68.08;102186.56;5100810;28;20264;-64
2022/07/09 00:44:10;;;;;;;11.50;7.60;;;;;;;17.50;68.13;102180.38;5100165;28;20290;-63
2022/07/09 00:46:36;;;;;;;13.03;6.27;;;;;;;17.51;68.63;102176.03;5100533;28;20267;-63
2022/07/09 00:49:03;;;;;;;14.77;7.20;;;;;;;17.81;67.94;102183.13;5100403;28;20533;-64
2022/07/09 00:51:30;;;;;;;11.60;6.80;;;;;;;17.80;67.75;102178.72;5103008;28;20182;-64
2022/07/09 00:53:55;;;;;;;11.87;7.50;;;;;;;17.37;69.31;102189.13;5100756;28;20403;-64
2022/07/09 00:56:21;;;;;;;11.50;6.47;;;;;;;17.76;68.27;102184.00;5100107;28;20765;-63
2022/07/09 00:58:46;;;;;;;12.50;7.20;;;;;;;17.66;68.34;102173.41;5100221;28;20169;-63
2022/07/09 01:01:12;;;;;;;12.07;6.80;;;;;;;17.55;68.87;102176.88;5100594;28;20537;-64
2022/07/09 01:03:37;;;;;;;13.73;7.03;;;;;;;17.40;69.05;102183.88;5099826;28;20203;-63
2022/07/09 01:06:02;;;;;;;10.20;6.80;;;;;;;17.65;68.51;102170.78;5099889;28;20176;-63
2022/07/09 01:08:28;;;;;;;9.60;6.30;;;;;;;17.95;67.78;102161.22;5100389;28;20171;-64
2022/07/09 01:10:54;;;;;;;9.90;6.87;;;;;;;17.73;68.42;102160.25;5100015;28;20540;-65
2022/07/09 01:13:19;;;;;;;10.60;7.17;;;;;;;17.83;68.42;102172.59;5099020;28;20211;-63
2022/07/09 01:15:45;;;;;;;9.73;7.10;;;;;;;17.39;69.52;102168.94;5100159;28;20160;-64
2022/07/09 01:18:11;;;;;;;10.63;6.80;;;;;;;17.61;69.79;102176.94;5100037;28;20177;-65
2022/07/09 01:20:36;;;;;;;11.13;6.87;;;;;;;17.60;69.87;102169.88;5099729;28;20172;-64
2022/07/09 01:23:02;;;;;;;11.73;7.63;;;;;;;17.34;70.23;102178.56;5100024;28;20472;-64
2022/07/09 01:25:33;;;;;;;11.00;6.90;;;;;;;17.19;70.59;102165.34;5099651;28;20556;-64
2022/07/09 01:27:59;;;;;;;10.27;6.83;;;;;;;17.70;69.23;102174.31;5099520;28;20183;-64
2022/07/09 01:30:26;;;;;;;12.63;7.30;;;;;;;17.47;69.91;102166.34;5099946;28;20414;-65
2022/07/09 01:32:52;;;;;;;10.20;6.80;;;;;;;17.43;69.82;102157.53;5099535;28;20205;-65
2022/07/09 01:35:17;;;;;;;10.73;6.73;;;;;;;17.78;69.29;102156.75;5099279;28;20501;-64
2022/07/09 01:37:42;;;;;;;12.43;7.27;;;;;;;17.58;69.26;102150.56;5099750;28;20400;-63
2022/07/09 01:40:08;;;;;;;9.17;6.57;;;;;;;17.32;70.61;102154.84;5099370;28;20180;-63
2022/07/09 01:42:34;;;;;;;9.47;6.50;;;;;;;17.59;70.10;102152.28;5098960;28;20611;-64
2022/07/09 01:44:59;;;;;;;14.73;7.53;;;;;;;17.64;69.86;102150.56;5099610;28;20176;-64
2022/07/09 01:47:25;;;;;;;9.07;6.90;;;;;;;17.13;71.24;102150.34;5099147;28;20178;-63
2022/07/09 01:49:50;;;;;;;7.80;6.20;;;;;;;17.39;71.11;102145.22;5099241;28;20180;-63
2022/07/09 01:52:15;;;;;;;8.53;6.60;;;;;;;17.57;70.48;102141.75;5099502;28;20172;-63
2022/07/09 01:54:41;;;;;;;13.67;7.60;;;;;;;17.67;70.14;102140.00;5098932;28;20206;-63
2022/07/09 01:57:06;;;;;;;13.63;7.50;;;;;;;17.39;70.18;102137.31;5099153;28;20179;-63
2022/07/09 01:59:31;;;;;;;15.30;7.00;;;;;;;17.07;70.97;102142.44;5099349;28;20169;-63
2022/07/09 02:01:57;;;;;;;13.97;7.70;;;;;;;17.39;71.26;102137.31;5098269;28;20446;-64
2022/07/09 02:04:22;;;;;;;8.87;7.17;;;;;;;17.21;70.78;102130.22;5097953;28;20199;-64
2022/07/09 02:06:47;;;;;;;14.00;6.80;;;;;;;17.53;70.27;102129.44;5099368;28;20210;-63
2022/07/09 02:09:13;;;;;;;11.83;7.07;;;;;;;17.19;71.32;102131.94;5098985;28;20485;-63
2022/07/09 02:11:38;;;;;;;13.80;7.60;;;;;;;17.50;70.92;102119.75;5098194;28;20445;-63
2022/07/09 02:14:04;;;;;;;17.17;7.43;;;;;;;17.30;70.70;102119.69;5099164;28;20530;-63
2022/07/09 02:16:29;;;;;;;9.70;7.17;;;;;;;17.36;70.66;102121.47;5098927;28;20172;-63
2022/07/09 02:18:55;;;;;;;11.37;7.50;;;;;;;17.40;71.10;102117.97;5098717;28;20172;-64
2022/07/09 02:21:20;;;;;;;15.07;7.03;;;;;;;17.36;71.14;102117.94;5099213;28;20177;-63
2022/07/09 02:23:46;;;;;;;10.97;6.90;;;;;;;17.36;71.11;102113.56;5098690;28;20227;-63
2022/07/09 02:26:12;;;;;;;15.23;7.07;;;;;;;17.48;71.01;102108.34;5098777;28;20441;-63
2022/07/09 02:28:37;;;;;;;11.37;6.87;;;;;;;17.45;70.75;102113.56;5098859;28;20417;-64
2022/07/09 02:31:03;;;;;;;13.37;7.03;;;;;;;17.53;70.67;102113.59;5098445;28;20168;-63
2022/07/09 02:33:30;;;;;;;9.37;6.50;;;;;;;17.24;71.64;102102.97;5098386;28;20187;-63
2022/07/09 02:35:55;;;;;;;11.40;6.70;;;;;;;17.55;70.94;102105.69;5098867;28;20203;-63
2022/07/09 02:38:21;;;;;;;12.40;6.67;;;;;;;17.55;70.52;102098.69;5098344;28;20469;-63
2022/07/09 02:40:48;;;;;;;14.70;7.23;;;;;;;17.68;70.24;102100.47;5098369;28;20168;-65
2022/07/09 02:43:13;;;;;;;14.57;7.20;;;;;;;17.42;71.06;102103.03;5097345;28;20587;-63
2022/07/09 02:45:38;;;;;;;9.27;6.17;;;;;;;17.60;71.01;102099.59;5097396;28;20429;-63
2022/07/09 02:48:04;;;;;;;11.30;6.10;;;;;;;17.35;71.75;102098.63;5098682;28;20172;-64
2022/07/09 02:50:29;;;;;;;10.70;6.87;;;;;;;17.07;72.37;102109.03;5098281;28;20191;-63
2022/07/09 02:52:54;;;;;;;14.13;7.10;;;;;;;17.39;71.61;102102.16;5098314;28;20221;-63
2022/07/09 02:55:20;;;;;;;10.20;6.60;;;;;;;17.11;72.05;102100.28;5098495;28;20544;-63
2022/07/09 02:57:45;;;;;;;11.70;6.97;;;;;;;17.19;72.36;102094.19;5098198;28;20429;-62
2022/07/09 03:00:11;;;;;;;17.40;9.97;;;;;;;17.16;72.20;102106.44;5098176;28;20255;-63
2022/07/09 03:02:36;;;;;;;10.30;7.03;;;;;;;17.14;72.25;102105.59;5098598;28;20176;-62
2022/07/09 03:05:02;;;;;;;18.80;6.87;;;;;;;17.56;71.04;102095.16;5097922;28;20168;-63
2022/07/09 03:07:27;;;;;;;13.03;7.43;;;;;;;17.23;72.30;102101.22;5097982;28;20174;-63
2022/07/09 03:09:53;;;;;;;11.60;6.43;;;;;;;17.24;72.27;102102.97;5098779;28;20291;-62
2022/07/09 03:12:18;;;;;;;9.60;6.60;;;;;;;17.61;70.62;102097.81;5098184;28;20169;-65
2022/07/09 03:14:44;;;;;;;13.90;7.87;;;;;;;17.62;70.96;102096.94;5098030;28;20269;-62
2022/07/09 03:17:09;;;;;;;9.23;7.97;;;;;;;17.51;71.03;102102.19;5102544;28;20168;-63
2022/07/09 03:19:34;;;;;;;13.23;7.17;;;;;;;17.42;71.49;102099.53;5102038;28;20214;-62
2022/07/09 03:22:00;;;;;;;11.03;7.10;;;;;;;17.46;71.18;102098.66;5102026;28;20202;-63
2022/07/09 03:24:25;;;;;;;9.70;7.13;;;;;;;17.40;71.84;102088.97;5102366;28;20199;-63
2022/07/09 03:26:50;;;;;;;10.20;7.00;;;;;;;17.49;71.69;102083.75;5101998;28;20173;-63
2022/07/09 03:29:16;;;;;;;12.47;7.43;;;;;;;17.19;72.73;102078.38;5102151;28;20245;-63
2022/07/09 03:31:41;;;;;;;10.60;7.93;;;;;;;17.32;72.75;102074.91;5102193;28;20258;-63
2022/07/09 03:34:06;;;;;;;9.37;7.83;;;;;;;17.20;73.50;102072.19;5101676;28;20456;-63
2022/07/09 03:36:32;;;;;;;14.33;8.40;;;;;;;17.00;74.04;102063.34;5101765;28;20188;-64
2022/07/09 03:38:58;;;;;;;14.83;8.57;;;;;;;16.99;74.12;102061.59;5102197;28;20247;-63
2022/07/09 03:41:23;;;;;;;13.90;8.23;;;;;;;17.25;73.80;102059.91;5101489;28;20164;-63
2022/07/09 03:43:49;;;;;;;14.60;9.10;;;;;;;17.14;73.99;102066.06;5101481;28;20207;-63
2022/07/09 03:46:14;;;;;;;12.83;8.30;;;;;;;17.16;74.30;102058.16;5102033;28;20165;-63
2022/07/09 03:48:40;;;;;;;10.07;8.00;;;;;;;17.13;74.46;102053.75;5100906;28;20176;-63
2022/07/09 03:51:05;;;;;;;11.33;8.07;;;;;;;17.23;74.49;102054.66;5101648;28;20171;-63
2022/07/09 03:53:31;;;;;;;10.83;7.90;;;;;;;17.07;74.31;102056.34;5101792;28;20165;-62
2022/07/09 03:55:56;;;;;;;13.30;8.00;;;;;;;16.99;74.55;102050.16;5100718;28;20184;-63
2022/07/09 03:58:21;;;;;;;10.27;8.10;;;;;;;17.07;74.91;102053.72;5101542;28;20180;-63
2022/07/09 04:00:47;;;;;;;15.83;8.00;;;;;;;16.99;75.00;102044.91;5101956;28;20207;-64
2022/07/09 04:03:12;;;;;;;16.30;9.50;;;;;;;17.11;74.35;102042.31;5101183;28;20611;-64
2022/07/09 04:05:38;;;;;;;10.67;8.10;;;;;;;17.38;74.06;102035.34;5101245;28;20169;-64
2022/07/09 04:08:03;;;;;;;10.40;8.13;;;;;;;17.24;74.46;102037.97;5101544;28;20169;-63
2022/07/09 04:10:29;;;;;;;15.83;9.53;;;;;;;17.45;73.48;102039.75;5101165;28;20171;-63
2022/07/09 04:12:55;;;;;;;9.20;7.90;;;;;;;17.51;72.83;102042.41;5101191;28;20176;-63
2022/07/09 04:15:20;;;;;;;8.50;7.60;;;;;;;17.33;73.73;102042.38;5101555;28;20514;-64
2022/07/09 04:17:45;;;;;;;8.53;7.63;;;;;;;17.45;73.68;102042.38;5100920;28;20456;-63
2022/07/09 04:20:11;;;;;;;10.10;7.80;;;;;;;17.67;73.31;102047.69;5100922;28;20195;-64
2022/07/09 04:22:36;;;;;;;11.13;8.70;;;;;;;17.53;73.80;102039.78;5101511;28;20293;-63
2022/07/09 04:25:02;;;;;;;12.07;8.20;;;;;;;17.92;72.79;102043.34;5100915;28;20176;-64
2022/07/09 04:27:27;;;;;;;14.00;8.00;;;;;;;17.47;73.75;102043.28;5100215;28;20213;-64
2022/07/09 04:29:53;;;;;;;14.90;8.30;;;;;;;17.39;73.90;102047.66;5100512;28;20172;-63
2022/07/09 04:32:18;;;;;;;14.20;7.80;;;;;;;17.06;74.59;102044.06;5100704;28;20184;-63
2022/07/09 04:34:44;;;;;;;9.07;7.30;;;;;;;17.37;74.74;102043.25;5100588;28;20229;-64
2022/07/09 04:37:09;;;;;;;10.10;8.00;;;;;;;17.53;74.35;102031.00;5100974;28;20183;-64
2022/07/09 04:39:34;;;;;;;8.97;7.60;;;;;;;17.52;74.12;102040.66;5100728;28;20187;-64
2022/07/09 04:42:00;;;;;;;9.30;7.60;;;;;;;17.40;74.34;102046.81;5100335;28;20319;-64
2022/07/09 04:44:25;;;;;;;9.00;7.70;;;;;;;17.63;74.34;102035.38;5100670;28;20196;-63
2022/07/09 04:46:51;;;;;;;10.27;7.90;;;;;;;17.78;73.57;102037.16;5100425;28;20179;-63
2022/07/09 04:49:16;;;;;;;9.80;7.50;;;;;;;17.66;73.87;102033.66;5100434;28;20218;-63
2022/07/09 04:51:41;;;;;;;9.00;7.43;;;;;;;17.97;72.36;102030.19;5100978;28;20174;-65
2022/07/09 04:54:07;;;;;;;10.07;7.67;;;;;;;17.97;72.45;102038.09;5100263;28;20177;-63
2022/07/09 04:56:32;;;;;;;10.97;7.43;;;;;;;17.76;73.84;102036.28;5100371;28;20168;-63
2022/07/09 04:59:00;;;;;;;9.23;7.40;;;;;;;17.74;73.79;102025.75;5100597;28;20172;-64
2022/07/09 05:01:26;;;;;;;10.97;6.70;;;;;;;17.88;73.89;102033.66;5100150;28;20255;-64
2022/07/09 05:03:52;;;;;;;7.70;6.90;;;;;;;18.03;73.10;102032.81;5099849;28;20449;-63
2022/07/09 05:06:17;;;;;;;9.00;6.80;;;;;;;18.05;73.08;102030.16;5100660;28;20402;-63
2022/07/09 05:08:43;;;;;;;8.60;6.90;;;;;;;18.39;72.27;102031.00;5100054;28;20187;-63
2022/07/09 05:11:10;;;;;;;11.50;7.17;;;;;;;18.31;71.97;102024.84;5099963;28;20164;-65
2022/07/09 05:13:36;;;;;;;8.80;7.43;;;;;;;18.45;72.10;102025.69;5100315;28;20168;-63
2022/07/09 05:16:02;;;;;;;6.87;6.20;;;;;;;18.33;72.01;102015.16;5099974;28;20414;-64
2022/07/09 05:18:29;;;;;;;7.97;6.53;;;;;;;18.26;72.57;102019.56;5099811;28;20418;-64
2022/07/09 05:20:54;;;;;;;7.83;6.80;;;;;;;17.89;73.24;102018.69;5100349;28;20402;-63
2022/07/09 05:23:19;;;;;;;9.30;6.60;;;;;;;18.33;72.59;102020.44;5099653;28;20514;-63
2022/07/09 05:25:45;;;;;;;7.93;6.60;;;;;;;18.26;72.41;102019.56;5099793;28;20529;-63
2022/07/09 05:28:10;;;;;;;13.50;7.10;;;;;;;18.17;71.98;102020.47;5100083;28;20229;-64
2022/07/09 05:30:37;;;;;;;13.50;6.40;;;;;;;18.35;72.18;102024.84;5099876;28;20167;-64
2022/07/09 05:33:05;;;;;;;9.47;6.67;;;;;;;18.24;72.34;102018.72;5099359;28;20187;-64
2022/07/09 05:35:31;;;;;;;15.23;6.30;;;;;;;18.43;72.57;102027.47;5100155;28;20414;-66
2022/07/09 05:37:56;;;;;;;6.83;6.23;;;;;;;18.61;71.82;102028.31;5099544;28;20430;-63
2022/07/09 05:40:22;;;;;;;9.50;6.87;;;;;;;18.22;72.62;102024.88;5099466;28;20422;-63
2022/07/09 05:42:47;;;;;;;13.70;6.90;;;;;;;18.05;73.18;102020.50;5098349;28;20311;-64
2022/07/09 05:45:12;;;;;;;7.90;6.60;;;;;;;18.31;72.86;102016.94;5099086;28;20183;-66
2022/07/09 05:47:38;;;;;;;8.77;6.50;;;;;;;18.34;72.41;102016.94;5099436;28;20191;-66
2022/07/09 05:50:03;;;;;;;8.30;6.90;;;;;;;18.01;73.21;102022.25;5099197;28;20172;-62
2022/07/09 05:52:29;;;;;;;8.30;7.30;;;;;;;18.24;73.92;102016.06;5099332;28;20256;-65
2022/07/09 05:54:54;;;;;;;7.13;6.40;;;;;;;18.34;72.74;102016.94;5098758;28;20172;-63
2022/07/09 05:57:20;;;;;;;7.77;6.40;;;;;;;18.04;73.98;102017.88;5099035;28;20214;-63
2022/07/09 05:59:45;;;;;;;10.87;6.73;;;;;;;18.45;72.85;102011.63;5098965;28;20176;-63
2022/07/09 06:02:10;;;;;;;9.30;6.00;;;;;;;18.61;72.22;102007.16;5099477;28;20191;-64
2022/07/09 06:04:36;;;;;;;11.97;6.27;;;;;;;18.39;72.39;102007.25;5098718;28;20568;-64
2022/07/09 06:07:01;;;;;;;8.50;6.60;;;;;;;18.16;72.90;102002.88;5098947;28;20445;-67
2022/07/09 06:09:27;;;;;;;7.83;6.80;;;;;;;18.42;73.11;102009.84;5099497;28;20236;-67
2022/07/09 06:11:52;;;;;;;6.60;6.00;;;;;;;18.48;73.01;102009.84;5098804;28;20168;-66
2022/07/09 06:14:19;;;;;;;13.50;12.13;;;;;;;18.43;72.79;102006.34;5098805;28;20191;-65
2022/07/09 06:16:46;;;;;;;9.87;8.93;;;;;;;18.67;72.22;102004.50;5099215;28;20176;-64
2022/07/09 06:19:12;;;;;;;10.30;8.00;;;;;;;18.94;71.46;102003.53;5097937;28;20477;-63
2022/07/09 06:21:38;;;;;;;11.03;9.23;;;;;;;18.87;71.61;101995.63;5098603;28;20426;-64
2022/07/09 06:24:03;;;;;;;8.93;7.50;;;;;;;18.86;70.97;101989.44;5098599;28;20192;-62
2022/07/09 06:26:30;;;;;;;7.63;6.77;;;;;;;18.79;72.49;102003.56;5097928;28;20186;-65
2022/07/09 06:28:55;;;;;;;8.77;7.30;;;;;;;18.86;71.39;101994.72;5098478;28;20203;-65
2022/07/09 06:31:21;;;;;;;8.70;6.90;;;;;;;18.94;71.96;101992.06;5098499;28;20520;-64
2022/07/09 06:33:46;;;;;;;8.03;7.23;;;;;;;18.71;71.26;101986.88;5097714;28;20232;-65
2022/07/09 06:36:11;;;;;;;9.47;7.97;;;;;;;18.30;73.73;102001.97;5098274;28;20184;-64
2022/07/09 06:39:44;;;;;;;10.90;7.30;;;;;;;18.95;71.84;101992.06;5097571;28;20263;-64
2022/07/09 06:41:22;;;;;;;10.63;7.43;;;;;;;18.99;71.52;101995.59;5097249;28;20183;-63
2022/07/09 06:43:48;;;;;;;7.00;6.40;;;;;;;18.88;71.75;102002.66;5097734;28;20473;-62
2022/07/09 06:46:13;;;;;;;9.90;7.87;;;;;;;19.68;69.05;101987.16;5098031;28;20176;-66
2022/07/09 06:48:38;;;;;;;8.33;6.50;;;;;;;19.72;68.77;101993.31;5097882;28;20188;-63
2022/07/09 06:51:04;;;;;;;9.43;7.30;;;;;;;20.00;67.87;101983.38;5097141;28;20182;-63
2022/07/09 06:53:29;;;;;;;6.63;6.13;;;;;;;19.87;67.26;101986.19;5097944;28;20211;-69
2022/07/09 06:55:55;;;;;;;7.00;6.20;;;;;;;20.27;66.81;101989.28;5098433;28;20548;-70
2022/07/09 06:58:20;;;;;;;10.77;6.30;;;;;;;21.15;64.47;101982.03;5097991;28;20175;-69
2022/07/09 07:00:45;;;;;;;7.77;6.70;;;;;;;20.53;65.86;101986.34;5098305;28;20187;-70
2022/07/09 07:03:11;;;;;;;9.90;5.83;;;;;;;20.12;66.56;101981.50;5096900;28;20235;-69
2022/07/09 07:05:36;;;;;;;7.80;6.03;;;;;;;19.33;69.63;101992.72;5098732;28;20172;-70
2022/07/09 07:08:02;;;;;;;9.67;6.30;;;;;;;19.69;68.52;101988.06;5098145;28;20221;-69
2022/07/09 07:10:27;;;;;;;6.90;5.97;;;;;;;19.84;68.51;101990.59;5098063;28;20196;-69
2022/07/09 07:12:54;;;;;;;7.87;6.13;;;;;;;19.37;69.95;101983.03;5098225;28;20247;-69
2022/07/09 07:15:19;;;;;;;7.63;6.50;;;;;;;19.77;69.47;101983.56;5096566;28;20276;-69
2022/07/09 07:17:44;;;;;;;6.47;5.90;;;;;;;19.51;69.42;101974.09;5097297;28;20422;-68
2022/07/09 07:20:10;;;;;;;6.03;5.53;;;;;;;19.51;69.75;101979.38;5098273;28;20276;-69
2022/07/09 07:22:36;;;;;;;10.90;7.13;;;;;;;19.66;69.25;101982.78;5097641;28;20263;-70
2022/07/09 07:25:01;;;;;;;8.53;6.60;;;;;;;19.95;67.93;101979.03;5097736;28;20180;-69
2022/07/09 07:27:26;;;;;;;6.63;5.77;;;;;;;20.22;66.66;101980.53;5097868;28;20596;-69
2022/07/09 07:29:52;;;;;;;7.43;5.40;;;;;;;20.71;65.79;101976.44;5097542;28;20184;-69
2022/07/09 07:32:17;;;;;;;6.20;5.60;;;;;;;20.79;65.16;101977.22;5097273;28;20192;-69
2022/07/09 07:34:42;;;;;;;6.67;5.40;;;;;;;20.81;65.17;101975.44;5097566;28;20192;-69
2022/07/09 07:37:08;;;;;;;9.00;5.10;;;;;;;21.55;62.24;101972.59;5094574;28;20184;-70
2022/07/09 07:39:33;;;;;;;5.30;4.67;;;;;;;21.01;63.57;101964.56;5086552;28;20612;-70
2022/07/09 07:41:58;;;;;;;6.20;5.60;;;;;;;21.22;63.09;101969.53;5097078;28;20437;-68
2022/07/09 07:44:24;;;;;;;4.83;4.33;;;;;;;20.95;63.72;101971.72;5096829;28;20291;-69
2022/07/09 07:46:49;;;;;;;7.73;5.10;;;;;;;21.14;63.19;101964.38;5096529;28;20549;-70
2022/07/09 07:49:15;;;;;;;4.90;4.23;;;;;;;22.83;58.18;101949.78;5096555;28;20482;-69
2022/07/09 07:51:42;;;;;;;5.37;4.50;;;;;;;22.51;58.51;101959.31;5096126;28;20168;-71
2022/07/09 07:54:08;;;;;;;4.63;4.10;;;;;;;22.89;57.68;101954.06;5093453;28;20475;-70
2022/07/09 07:56:36;;;;;;;6.40;4.10;;;;;;;23.55;57.03;101952.53;5085996;28;20437;-69
2022/07/09 07:59:02;;;;;;;6.83;4.13;;;;;;;24.82;52.89;101941.03;5096711;28;20234;-69
2022/07/09 08:01:27;;;;;;;5.20;4.30;;;;;;;23.65;54.75;101942.53;5097104;28;20441;-69
2022/07/09 08:03:53;;;;;;;6.63;3.77;;;;;;;23.58;55.28;101946.25;5099668;28;20469;-69
2022/07/09 08:06:18;;;;;;;4.30;3.90;;;;;;;22.66;58.02;101943.97;5099483;28;20505;-69
2022/07/09 08:08:43;;;;;;;6.07;3.67;;;;;;;22.32;58.50;101941.97;5097620;28;20168;-69
2022/07/09 08:11:09;;;;;;;3.90;3.60;;;;;;;21.96;60.00;101952.41;5096443;28;20221;-68
2022/07/09 08:13:34;;;;;;;4.37;3.97;;;;;;;22.85;58.27;101947.97;5100102;28;20180;-69
2022/07/09 08:16:01;;;;;;;5.67;4.00;;;;;;;22.87;57.73;101946.13;5100441;28;20343;-69
2022/07/09 08:18:27;;;;;;;4.40;3.70;;;;;;;23.11;56.91;101945.59;5098929;28;20172;-69
2022/07/09 08:20:52;;;;;;;6.73;3.77;;;;;;;22.50;58.30;101941.66;5099352;28;20418;-69
2022/07/09 08:23:18;;;;;;;4.13;3.83;;;;;;;22.46;58.49;101942.63;5099389;28;20249;-69
2022/07/09 08:25:43;;;;;;;5.80;4.20;;;;;;;22.34;58.94;101948.16;5099855;28;20192;-69
2022/07/09 08:28:09;;;;;;;5.00;3.63;;;;;;;22.10;59.52;101942.41;5095910;28;20553;-70
2022/07/09 08:30:35;;;;;;;5.17;4.67;;;;;;;21.42;61.00;101940.94;5100229;28;20176;-68
2022/07/09 08:33:00;;;;;;;5.90;3.60;;;;;;;21.61;61.64;101941.53;5098444;28;20584;-69
2022/07/09 08:35:26;;;;;;;5.30;3.60;;;;;;;22.18;60.46;101931.66;5099397;28;20433;-69
2022/07/09 08:37:52;;;;;;;4.13;3.77;;;;;;;22.22;59.44;101936.00;5100282;28;20259;-69
2022/07/09 08:40:18;;;;;;;6.53;4.03;;;;;;;21.42;61.00;101932.97;5098938;28;20177;-69
2022/07/09 08:42:43;;;;;;;6.97;4.40;;;;;;;21.19;62.20;101931.56;5099212;28;20522;-69
2022/07/09 08:45:15;;;;;;;4.70;4.10;;;;;;;21.41;62.16;101941.84;5091943;28;20198;-69
2022/07/09 08:47:41;;;;;;;4.13;3.73;;;;;;;21.40;61.82;101934.78;5100059;28;20184;-68
2022/07/09 08:50:06;;;;;;;4.10;3.80;;;;;;;21.74;60.97;101928.91;5100010;28;20509;-69
2022/07/09 08:52:32;;;;;;;4.10;3.70;;;;;;;22.30;58.85;101922.53;5096366;28;20906;-69
2022/07/09 08:54:58;;;;;;;5.60;3.90;;;;;;;22.84;56.93;101919.63;5088987;28;20261;-69
2022/07/09 08:57:23;;;;;;;5.33;3.50;;;;;;;25.11;50.56;101912.56;5098574;28;20214;-69
2022/07/09 08:59:48;;;;;;;5.03;3.07;;;;;;;26.42;47.08;101903.56;5098393;28;20180;-70
2022/07/09 09:02:14;;;;;;;3.87;3.10;;;;;;;27.87;44.09;101905.63;5098041;28;20602;-68
2022/07/09 09:04:40;;;;;;;4.23;3.83;;;;;;;27.87;42.92;101906.53;5082994;28;20200;-70
2022/07/09 09:07:16;;;;;;;3.40;2.77;;;;;;;28.38;41.77;101900.66;5099586;28;20176;-71
2022/07/09 09:09:42;;;;;;;3.43;2.70;;;;;;;27.78;41.84;101895.31;5086780;28;20764;-70
2022/07/09 09:12:08;;;;;;;3.43;2.67;;;;;;;27.97;41.34;101909.66;5094794;28;20429;-70
2022/07/09 09:14:33;;;;;;;3.63;2.57;;;;;;;25.98;45.60;101906.94;5098701;28;20518;-69
2022/07/09 09:17:04;;;;;;;3.77;3.00;;;;;;;25.22;47.55;101914.88;5099983;28;20478;-71
2022/07/09 09:19:30;;;;;;;3.13;2.73;;;;;;;23.59;51.76;101923.19;5100108;28;20225;-71
2022/07/09 09:21:55;;;;;;;3.87;3.40;;;;;;;24.01;51.26;101921.16;5099463;28;20732;-70
2022/07/09 09:24:29;;;;;;;4.60;3.00;;;;;;;25.11;48.71;101917.88;5098895;28;20207;-70
2022/07/09 09:27:01;;;;;;;5.33;2.90;;;;;;;26.36;45.41;101916.22;5101006;28;20168;-70
2022/07/09 09:29:27;;;;;;;3.73;3.10;;;;;;;28.18;41.68;101910.50;5099576;28;20422;-70
2022/07/09 09:31:52;;;;;;;4.30;2.70;;;;;;;27.59;41.46;101912.22;5099440;28;20425;-71
2022/07/09 09:34:19;;;;;;;5.43;2.90;;;;;;;27.34;41.75;101899.84;5100106;28;20156;-70
2022/07/09 09:36:52;;;;;;;4.43;2.90;;;;;;;27.68;41.36;101897.53;5099530;28;20179;-69
2022/07/09 09:39:19;;;;;;;4.53;2.90;;;;;;;27.99;40.17;101896.16;5098358;28;20418;-69
2022/07/09 09:41:47;;;;;;;3.73;2.77;;;;;;;26.63;43.16;101897.38;5094411;28;20461;-70
2022/07/09 09:44:14;;;;;;;4.80;2.70;;;;;;;27.36;41.33;101889.06;5098578;28;20458;-70
2022/07/09 09:46:41;;;;;;;2.60;2.40;;;;;;;26.58;43.05;101893.16;5099354;28;20449;-70
2022/07/09 09:49:08;;;;;;;3.00;2.63;;;;;;;27.21;41.88;101891.47;5099155;28;20425;-70
2022/07/09 09:51:55;;;;;;;3.10;2.30;;;;;;;26.31;43.42;101888.78;5099025;28;20406;-70
2022/07/09 09:54:21;;;;;;;3.40;2.60;;;;;;;25.42;44.43;101897.34;5099005;28;20438;-70
2022/07/09 09:56:50;;;;;;;4.10;3.10;;;;;;;25.36;44.49;101901.09;5099070;28;20411;-70
2022/07/09 09:59:16;;;;;;;3.07;2.77;;;;;;;26.59;41.37;101884.16;5099542;28;20417;-70
2022/07/09 10:01:42;;;;;;;2.97;2.77;;;;;;;27.08;40.81;101884.03;5098901;28;20410;-70
2022/07/09 10:04:09;;;;;;;2.90;2.60;;;;;;;27.29;38.76;101895.63;5098869;28;20468;-70
2022/07/09 10:06:36;;;;;;;2.57;2.37;;;;;;;28.84;36.53;101876.13;5098642;28;20491;-71
2022/07/09 10:09:03;;;;;;;3.37;2.47;;;;;;;29.06;37.22;101868.75;5099050;28;20418;-70
2022/07/09 10:11:42;;;;;;;2.83;2.60;;;;;;;29.06;36.22;101871.44;5098935;28;20697;-70
2022/07/09 10:14:15;;;;;;;3.10;2.63;;;;;;;29.17;35.63;101872.69;5098209;28;20418;-69
2022/07/09 10:16:40;;;;;;;3.53;2.53;;;;;;;30.12;35.59;101860.56;5098241;28;20444;-70
2022/07/09 10:19:06;;;;;;;3.37;2.80;;;;;;;28.59;37.30;101865.69;5097697;28;20422;-69
2022/07/09 10:21:36;;;;;;;4.67;2.70;;;;;;;28.04;38.55;101870.06;5098374;28;20198;-72
2022/07/09 10:24:04;;;;;;;3.30;3.00;;;;;;;27.27;39.72;101874.28;5098910;28;20491;-70
2022/07/09 10:26:43;;;;;;;2.93;2.40;;;;;;;27.80;39.42;101878.22;5097904;28;20738;-70
2022/07/09 10:29:17;;;;;;;3.97;2.57;;;;;;;29.04;36.85;101869.78;5098440;28;20422;-70
2022/07/09 10:31:43;;;;;;;3.10;2.53;;;;;;;30.34;34.81;101861.13;5089333;28;20423;-70
2022/07/09 10:34:16;;;;;;;2.83;2.53;;;;;;;28.83;36.60;101869.03;5077407;28;20484;-70
2022/07/09 10:36:56;;;;;;;4.23;2.40;;;;;;;27.70;38.88;101877.78;5077525;28;20169;-70
2022/07/09 10:39:22;;;;;;;2.40;2.20;;;;;;;29.29;36.68;101871.22;5078166;28;20415;-70
2022/07/09 10:41:58;;;;;;;2.63;2.40;;;;;;;29.01;36.51;101872.59;5077845;28;20466;-69
2022/07/09 10:44:28;;;;;;;3.00;2.50;;;;;;;27.55;39.36;101876.66;5084716;28;20280;-71
2022/07/09 10:46:58;;;;;;;4.57;2.60;;;;;;;26.54;41.36;101876.34;5098151;28;20438;-69
2022/07/09 10:49:25;;;;;;;3.90;2.97;;;;;;;24.77;44.59;101884.28;5098292;28;20440;-70
2022/07/09 10:51:55;;;;;;;3.43;2.70;;;;;;;24.13;46.38;101895.97;5098179;28;20493;-69
2022/07/09 10:54:20;;;;;;;2.80;2.60;;;;;;;23.87;47.67;101886.03;5098168;28;20491;-70
2022/07/09 10:56:49;;;;;;;3.00;2.80;;;;;;;23.55;48.87;101880.66;5098566;28;20403;-70
2022/07/09 10:59:20;;;;;;;5.60;2.70;;;;;;;23.80;47.56;101895.09;5097896;28;20430;-71
2022/07/09 11:01:46;;;;;;;4.40;2.30;;;;;;;25.48;42.46;101878.44;5097901;28;20829;-70
2022/07/09 11:04:14;;;;;;;2.87;2.50;;;;;;;26.41;40.98;101878.59;5098146;28;20532;-70
2022/07/09 11:06:46;;;;;;;3.23;2.40;;;;;;;26.75;40.98;101879.13;5097962;28;20175;-70
2022/07/09 11:09:15;;;;;;;3.97;2.40;;;;;;;25.65;43.52;101880.53;5098083;28;20410;-70
2022/07/09 11:11:44;;;;;;;4.07;2.60;;;;;;;26.25;42.69;101882.81;5096939;28;20414;-72
2022/07/09 11:14:10;;;;;;;3.67;2.63;;;;;;;27.08;41.49;101879.53;5093351;28;20426;-70
2022/07/09 11:16:35;;;;;;;4.03;2.50;;;;;;;26.37;42.73;101871.63;5092123;28;20761;-70